createdAt,value
2019-01-19T00:01:57.867Z,8.57
2019-01-19T00:05:12.685Z,10.70
2019-01-19T00:08:19.829Z,10.70
2019-01-19T00:11:30.549Z,11.15
2019-01-19T00:14:38.187Z,9.73
2019-01-19T00:17:50.186Z,10.00
2019-01-19T00:20:54.762Z,12.47
2019-01-19T00:24:09.835Z,12.63
2019-01-19T00:27:13.900Z,9.53
2019-01-19T00:30:18.474Z,11.33
2019-01-19T00:33:25.615Z,10.47
2019-01-19T00:36:29.935Z,10.08
2019-01-19T00:39:34.260Z,10.53
2019-01-19T00:42:53.136Z,9.50
2019-01-19T00:46:12.844Z,9.63
2019-01-19T00:49:24.840Z,10.43
2019-01-19T00:52:28.140Z,7.73
2019-01-19T00:55:32.457Z,10.00
2019-01-19T00:58:36.777Z,9.78
2019-01-19T01:01:50.059Z,7.65
2019-01-19T01:04:57.705Z,6.80
2019-01-19T01:08:02.284Z,8.80
2019-01-19T01:11:08.391Z,7.40
2019-01-19T01:14:15.527Z,7.93
2019-01-19T01:17:32.146Z,8.98
2019-01-19T01:20:45.682Z,7.20
2019-01-19T01:23:53.831Z,9.18
2019-01-19T01:26:56.616Z,7.53
2019-01-19T01:29:59.668Z,9.43
2019-01-19T01:33:07.051Z,7.90
2019-01-19T01:36:09.838Z,8.87
2019-01-19T01:39:10.313Z,7.23
2019-01-19T01:42:29.480Z,7.97
2019-01-19T01:45:26.631Z,7.83
2019-01-19T01:48:30.951Z,7.37
2019-01-19T01:51:37.836Z,7.53
2019-01-19T01:54:50.855Z,7.27
2019-01-19T01:57:46.472Z,7.53
2019-01-19T02:00:51.049Z,8.47
2019-01-19T02:04:07.659Z,7.43
2019-01-19T02:07:08.394Z,6.53
2019-01-19T02:10:12.711Z,6.33
2019-01-19T02:13:13.961Z,6.45
2019-01-19T02:16:27.499Z,7.85
2019-01-19T02:19:31.816Z,6.53
2019-01-19T02:22:42.281Z,6.85
2019-01-19T02:25:45.064Z,6.73
2019-01-19T02:28:46.311Z,6.50
2019-01-19T02:31:43.976Z,6.57
2019-01-19T02:34:50.858Z,6.57
2019-01-19T02:37:57.228Z,6.37
2019-01-19T02:41:01.546Z,5.90
2019-01-19T02:44:12.264Z,6.03
2019-01-19T02:47:31.951Z,8.68
2019-01-19T02:50:51.369Z,7.10
2019-01-19T02:53:54.155Z,7.28
2019-01-19T02:57:05.901Z,5.90
2019-01-19T03:00:13.291Z,5.87
2019-01-19T03:03:14.024Z,5.75
2019-01-19T03:06:22.439Z,6.28
2019-01-19T03:09:27.017Z,7.03
2019-01-19T03:12:27.753Z,6.27
2019-01-19T03:15:32.494Z,7.40
2019-01-19T03:18:36.908Z,6.77
2019-01-19T03:21:34.569Z,6.40
2019-01-19T03:24:39.145Z,5.47
2019-01-19T03:27:42.442Z,6.60
2019-01-19T03:30:52.649Z,5.43
2019-01-19T03:34:03.113Z,6.30
2019-01-19T03:37:08.460Z,6.40
2019-01-19T03:40:12.777Z,6.23
2019-01-19T03:43:28.104Z,6.35
2019-01-19T03:46:31.148Z,7.10
2019-01-19T03:49:34.441Z,6.23
2019-01-19T03:52:51.562Z,6.75
2019-01-19T03:55:54.349Z,5.75
2019-01-19T03:59:11.468Z,5.97
2019-01-19T04:02:22.189Z,6.07
2019-01-19T04:05:29.329Z,6.47
2019-01-19T04:08:37.480Z,4.55
2019-01-19T04:11:42.336Z,5.97
2019-01-19T04:14:43.049Z,5.53
2019-01-19T04:17:56.586Z,5.75
2019-01-19T04:20:59.625Z,5.28
2019-01-19T04:23:52.692Z,6.27
2019-01-19T04:26:51.370Z,6.50
2019-01-19T04:29:45.450Z,4.93
2019-01-19T04:32:38.250Z,6.20
2019-01-19T04:35:31.048Z,6.42
2019-01-19T04:38:25.132Z,5.20
2019-01-19T04:41:19.466Z,6.43
2019-01-19T04:44:12.522Z,5.90
2019-01-19T04:47:06.860Z,6.27
2019-01-19T04:49:59.658Z,6.87
2019-01-19T04:53:02.441Z,6.33
2019-01-19T04:56:05.227Z,6.17
2019-01-19T04:59:08.268Z,5.62
2019-01-19T05:02:11.313Z,6.63
2019-01-19T05:05:14.607Z,4.93
2019-01-19T05:08:18.408Z,3.73
2019-01-19T05:11:28.618Z,5.40
2019-01-19T05:14:31.400Z,6.23
2019-01-19T05:17:33.931Z,4.70
2019-01-19T05:20:37.230Z,6.17
2019-01-19T05:23:41.289Z,6.20
2019-01-19T05:26:44.078Z,5.97
2019-01-19T05:29:43.530Z,6.20
2019-01-19T05:32:46.829Z,7.10
2019-01-19T05:35:49.624Z,7.67
2019-01-19T05:38:52.904Z,6.40
2019-01-19T05:41:56.455Z,4.87
2019-01-19T05:44:59.754Z,6.33
2019-01-19T05:48:02.544Z,4.63
2019-01-19T05:51:05.842Z,5.47
2019-01-19T05:54:08.616Z,7.43
2019-01-19T05:57:11.405Z,6.07
2019-01-19T06:00:14.707Z,6.77
2019-01-19T06:03:17.738Z,6.83
2019-01-19T06:06:20.521Z,6.73
2019-01-19T06:09:23.815Z,5.53
2019-01-19T06:12:26.858Z,6.93
2019-01-19T06:15:29.639Z,7.25
2019-01-19T06:18:32.426Z,6.70
2019-01-19T06:21:37.770Z,5.90
2019-01-19T06:24:40.825Z,8.03
2019-01-19T06:27:43.848Z,4.73
2019-01-19T06:30:46.895Z,6.30
2019-01-19T06:33:49.671Z,7.00
2019-01-19T06:36:54.977Z,6.37
2019-01-19T06:39:55.752Z,6.20
2019-01-19T06:42:58.536Z,6.20
2019-01-19T06:46:02.087Z,6.67
2019-01-19T06:49:04.878Z,7.03
2019-01-19T06:52:07.914Z,7.70
2019-01-19T06:55:10.702Z,5.87
2019-01-19T06:58:13.738Z,5.83
2019-01-19T07:01:16.779Z,5.53
2019-01-19T07:04:19.816Z,5.53
2019-01-19T07:07:23.378Z,5.77
2019-01-19T07:10:26.414Z,5.60
2019-01-19T07:13:29.193Z,7.70
2019-01-19T07:16:32.234Z,5.23
2019-01-19T07:19:35.018Z,6.67
2019-01-19T07:22:45.223Z,6.00
2019-01-19T07:25:48.266Z,6.60
2019-01-19T07:28:51.049Z,8.17
2019-01-19T07:31:53.834Z,6.73
2019-01-19T07:34:57.641Z,6.37
2019-01-19T07:38:00.682Z,4.73
2019-01-19T07:41:04.263Z,6.37
2019-01-19T07:44:07.528Z,5.62
2019-01-19T07:47:10.569Z,6.20
2019-01-19T07:50:13.609Z,5.10
2019-01-19T07:53:16.648Z,6.80
2019-01-19T07:56:19.433Z,5.63
2019-01-19T07:59:22.216Z,6.00
2019-01-19T08:02:27.560Z,5.80
2019-01-19T08:05:30.858Z,8.30
2019-01-19T08:08:33.896Z,7.23
2019-01-19T08:11:37.959Z,7.17
2019-01-19T08:14:40.498Z,7.93
2019-01-19T08:17:43.793Z,6.15
2019-01-19T08:20:46.828Z,5.53
2019-01-19T08:23:49.612Z,4.80
2019-01-19T08:26:52.906Z,8.00
2019-01-19T08:29:56.200Z,7.73
2019-01-19T08:32:59.503Z,6.30
2019-01-19T08:36:03.598Z,6.10
2019-01-19T08:39:06.349Z,8.57
2019-01-19T08:42:09.645Z,4.87
2019-01-19T08:45:12.678Z,5.33
2019-01-19T08:48:15.723Z,7.58
2019-01-19T08:51:18.510Z,6.07
2019-01-19T08:54:21.544Z,4.10
2019-01-19T08:57:24.587Z,5.45
2019-01-19T09:00:27.882Z,6.85
2019-01-19T09:03:31.181Z,6.37
2019-01-19T09:06:28.454Z,5.17
2019-01-19T09:09:31.885Z,6.40
2019-01-19T09:12:34.922Z,6.13
2019-01-19T09:15:37.707Z,7.87
2019-01-19T09:18:40.744Z,8.23
2019-01-19T09:21:44.045Z,5.95
2019-01-19T09:24:46.824Z,7.70
2019-01-19T09:27:49.607Z,6.63
2019-01-19T09:30:52.905Z,5.93
2019-01-19T09:33:56.972Z,8.20
2019-01-19T09:37:00.522Z,7.00
2019-01-19T09:40:03.050Z,7.97
2019-01-19T09:43:06.087Z,8.20
2019-01-19T09:46:08.871Z,4.40
2019-01-19T09:49:11.919Z,6.80
2019-01-19T09:52:21.212Z,10.13
2019-01-19T09:55:18.760Z,6.60
2019-01-19T09:58:22.056Z,8.30
2019-01-19T10:01:25.096Z,7.12
2019-01-19T10:04:27.880Z,5.37
2019-01-19T10:07:30.665Z,7.20
2019-01-19T10:10:41.132Z,6.93
2019-01-19T10:13:44.425Z,5.70
2019-01-19T10:16:47.466Z,5.87
2019-01-19T10:19:50.505Z,8.33
2019-01-19T10:22:53.800Z,7.53
2019-01-19T10:25:56.846Z,6.90
2019-01-19T10:28:59.885Z,5.87
2019-01-19T10:32:03.177Z,9.77
2019-01-19T10:35:06.985Z,6.87
2019-01-19T10:38:10.028Z,6.53
2019-01-19T10:41:13.577Z,6.28
2019-01-19T10:44:17.132Z,6.33
2019-01-19T10:47:20.166Z,6.97
2019-01-19T10:50:23.975Z,4.58
2019-01-19T10:53:27.784Z,5.90
2019-01-19T10:56:30.569Z,4.00
2019-01-19T10:59:33.608Z,7.53
2019-01-19T11:06:09.654Z,7.40
2019-01-19T11:09:03.469Z,8.80
2019-01-19T11:11:56.519Z,8.03
2019-01-19T11:14:49.844Z,10.10
2019-01-19T11:17:43.404Z,8.53
2019-01-19T11:20:34.151Z,8.28
2019-01-19T11:23:27.212Z,8.95
2019-01-19T11:26:20.270Z,6.97
2019-01-19T11:29:13.327Z,9.50
2019-01-19T11:32:14.827Z,10.13
2019-01-19T11:35:07.880Z,9.28
2019-01-19T11:38:01.961Z,9.15
2019-01-19T11:40:56.295Z,7.90
2019-01-19T11:43:49.353Z,7.92
2019-01-19T11:46:42.407Z,7.28
2019-01-19T11:49:36.492Z,7.75
2019-01-19T11:52:29.294Z,7.93
2019-01-19T11:55:22.343Z,9.25
2019-01-19T11:58:16.425Z,7.20
2019-01-19T12:01:11.271Z,9.33
2019-01-19T12:04:04.330Z,9.43
2019-01-19T12:06:53.293Z,8.33
2019-01-19T12:09:46.344Z,8.23
2019-01-19T12:12:39.400Z,7.83
2019-01-19T12:15:34.249Z,6.70
2019-01-19T12:18:23.720Z,8.43
2019-01-19T12:21:12.943Z,11.43
2019-01-19T12:24:06.249Z,8.43
2019-01-19T12:27:00.083Z,7.70
2019-01-19T12:29:53.138Z,7.25
2019-01-19T12:32:47.466Z,10.00
2019-01-19T12:35:40.532Z,8.25
2019-01-19T12:38:33.833Z,11.55
2019-01-19T12:41:28.168Z,9.73
2019-01-19T12:44:21.231Z,7.53
2019-01-19T12:47:14.800Z,8.28
2019-01-19T12:50:07.853Z,9.58
2019-01-19T12:53:00.917Z,10.98
2019-01-19T12:55:53.964Z,8.55
2019-01-19T12:58:46.759Z,7.53
2019-01-19T13:01:39.820Z,10.78
2019-01-19T13:04:32.877Z,9.78
2019-01-19T13:07:24.648Z,6.00
2019-01-19T13:10:19.499Z,6.35
2019-01-19T13:13:09.617Z,10.53
2019-01-19T13:16:14.079Z,9.40
2019-01-19T13:19:27.605Z,12.73
2019-01-19T13:22:50.101Z,9.80
2019-01-19T13:25:53.132Z,6.35
2019-01-19T13:29:16.140Z,12.60
2019-01-19T13:32:39.948Z,8.70
2019-01-19T13:35:50.892Z,7.95
2019-01-19T13:38:58.024Z,9.55
2019-01-19T13:42:01.321Z,12.23
2019-01-19T13:45:17.932Z,12.25
2019-01-19T13:48:20.971Z,10.93
2019-01-19T13:51:24.524Z,7.25
2019-01-19T13:54:44.203Z,6.50
2019-01-19T13:57:54.921Z,6.60
2019-01-19T14:01:11.272Z,8.43
2019-01-19T14:04:16.619Z,11.80
2019-01-19T14:07:21.502Z,9.23
2019-01-19T14:10:34.477Z,11.35
2019-01-19T14:13:46.215Z,7.15
2019-01-19T14:16:57.197Z,4.25
2019-01-19T14:20:13.547Z,12.82
2019-01-19T14:23:20.425Z,10.88
2019-01-19T14:26:31.156Z,8.63
2019-01-19T14:29:33.938Z,11.50
2019-01-19T14:32:38.251Z,11.10
2019-01-19T14:35:48.204Z,6.15
2019-01-19T14:38:56.390Z,11.33
2019-01-19T14:41:57.353Z,7.85
2019-01-19T14:45:23.433Z,10.50
2019-01-19T14:48:43.400Z,10.30
2019-01-19T14:51:47.691Z,10.85
2019-01-19T14:54:50.732Z,10.05
2019-01-19T14:57:49.480Z,8.93
2019-01-19T15:00:52.461Z,7.03
2019-01-19T15:03:59.851Z,12.30
2019-01-19T15:07:10.316Z,10.05
2019-01-19T15:10:05.930Z,6.03
2019-01-19T15:13:10.248Z,9.25
2019-01-19T15:16:13.547Z,8.50
2019-01-19T15:19:18.128Z,11.03
2019-01-19T15:22:26.027Z,7.15
2019-01-19T15:25:22.921Z,11.20
2019-01-19T15:28:34.416Z,11.63
2019-01-19T15:31:44.618Z,11.63
2019-01-19T15:34:47.656Z,11.33
2019-01-19T15:37:51.208Z,11.90
2019-01-19T15:41:02.184Z,8.25
2019-01-19T15:44:06.505Z,14.07
2019-01-19T15:47:25.418Z,8.45
2019-01-19T15:50:28.970Z,13.35
2019-01-19T15:53:36.454Z,12.98
2019-01-19T15:56:55.531Z,10.35
2019-01-19T16:00:07.274Z,11.38
2019-01-19T16:03:10.583Z,9.35
2019-01-19T16:06:14.891Z,10.20
2019-01-19T16:09:19.772Z,9.55
2019-01-19T16:12:31.216Z,9.20
2019-01-19T16:15:41.676Z,16.37
2019-01-19T16:18:45.998Z,9.23
2019-01-19T16:21:46.731Z,12.58
2019-01-19T16:25:09.225Z,7.23
2019-01-19T16:28:15.082Z,10.03
2019-01-19T16:32:14.956Z,11.15
2019-01-19T16:35:19.790Z,12.60
2019-01-19T16:38:38.954Z,11.05
2019-01-19T16:41:41.737Z,13.18
2019-01-19T16:44:49.142Z,8.85
2019-01-19T16:48:06.526Z,10.60
2019-01-19T16:51:11.594Z,14.50
2019-01-19T16:54:34.088Z,7.53
2019-01-19T16:57:39.432Z,15.45
2019-01-19T17:00:43.753Z,16.23
2019-01-19T17:03:50.890Z,11.50
2019-01-19T17:06:53.928Z,13.95
2019-01-19T17:10:01.334Z,11.73
2019-01-19T17:13:11.933Z,14.15
2019-01-19T17:16:15.597Z,14.05
2019-01-19T17:19:28.876Z,10.32
2019-01-19T17:22:39.087Z,11.70
2019-01-19T17:25:49.037Z,13.48
2019-01-19T17:28:47.722Z,16.82
2019-01-19T17:31:52.554Z,17.73
2019-01-19T17:35:06.349Z,15.03
2019-01-19T17:38:06.953Z,16.15
2019-01-19T17:41:18.174Z,14.10
2019-01-19T17:44:23.145Z,14.65
2019-01-19T17:47:34.122Z,13.72
2019-01-19T17:50:44.584Z,13.53
2019-01-19T17:53:58.889Z,13.40
2019-01-19T17:57:09.352Z,13.30
2019-01-19T18:00:28.522Z,13.90
2019-01-19T18:03:35.403Z,14.58
2019-01-19T18:06:37.676Z,13.25
2019-01-19T18:09:50.698Z,16.03
2019-01-19T18:12:55.020Z,13.58
2019-01-19T18:15:59.336Z,13.25
2019-01-19T18:19:03.917Z,11.80
2019-01-19T18:22:08.237Z,13.30
2019-01-19T18:25:21.771Z,11.12
2019-01-19T18:28:43.761Z,11.40
2019-01-19T18:32:00.368Z,11.35
2019-01-19T18:35:04.687Z,11.33
2019-01-19T18:38:10.792Z,11.23
2019-01-19T18:41:08.202Z,13.30
2019-01-19T18:44:21.482Z,12.33
2019-01-19T18:47:40.656Z,10.30
2019-01-19T18:50:44.971Z,13.50
2019-01-19T18:53:48.274Z,13.22
2019-01-19T18:57:10.766Z,9.88
2019-01-19T19:00:13.800Z,12.00
2019-01-19T19:03:23.753Z,12.23
2019-01-19T19:06:31.965Z,13.30
2019-01-19T19:09:45.453Z,13.80
2019-01-19T19:12:46.960Z,14.03
2019-01-19T19:16:06.633Z,13.27
2019-01-19T19:19:13.770Z,13.90
2019-01-19T19:22:36.270Z,11.83
2019-01-19T19:25:38.796Z,11.33
2019-01-19T19:28:52.076Z,12.33
2019-01-19T19:31:56.399Z,16.30
2019-01-19T19:35:00.713Z,12.23
2019-01-19T19:38:11.183Z,8.47
2019-01-19T19:41:30.608Z,13.08
2019-01-19T19:44:45.419Z,14.38
2019-01-19T19:47:52.554Z,15.80
2019-01-19T19:51:02.511Z,16.83
2019-01-19T19:53:55.560Z,11.55
2019-01-19T19:56:40.170Z,16.85
2019-01-19T19:59:33.999Z,11.57
2019-01-19T20:02:27.562Z,13.50
2019-01-19T20:05:20.365Z,14.23
2019-01-19T20:08:13.427Z,16.05
2019-01-19T20:11:08.012Z,16.57
2019-01-19T20:14:01.587Z,18.87
2019-01-19T20:16:55.152Z,14.60
2019-01-19T20:19:48.717Z,14.40
2019-01-19T20:22:42.286Z,15.55
2019-01-19T20:25:36.363Z,14.73
2019-01-19T20:28:29.929Z,12.78
2019-01-19T20:31:22.983Z,13.98
2019-01-19T20:34:16.041Z,14.43
2019-01-19T20:37:09.355Z,13.55
2019-01-19T20:40:02.413Z,16.00
2019-01-19T20:42:58.282Z,13.32
2019-01-19T20:45:51.338Z,13.40
2019-01-19T20:48:48.751Z,13.98
2019-01-19T20:51:41.805Z,13.98
2019-01-19T20:54:35.117Z,13.75
2019-01-19T20:57:28.684Z,14.23
2019-01-19T21:00:22.763Z,16.57
2019-01-19T21:03:15.818Z,13.53
2019-01-19T21:06:08.897Z,14.13
2019-01-19T21:09:02.443Z,14.50
2019-01-19T21:11:58.572Z,15.35
2019-01-19T21:14:53.943Z,13.80
2019-01-19T21:17:46.999Z,12.85
2019-01-19T21:20:40.047Z,16.23
2019-01-19T21:23:32.840Z,17.12
2019-01-19T21:26:25.896Z,13.45
2019-01-19T21:29:22.026Z,12.60
2019-01-19T21:32:15.081Z,13.15
2019-01-19T21:35:08.664Z,15.73
2019-01-19T21:38:02.771Z,12.50
2019-01-19T21:41:02.441Z,18.80
2019-01-19T21:43:55.498Z,13.20
2019-01-19T21:46:48.297Z,24.18
2019-01-19T21:49:41.356Z,24.72
2019-01-19T21:52:34.156Z,15.23
2019-01-19T21:55:27.467Z,25.50
2019-01-19T21:58:20.524Z,11.28
2019-01-19T22:01:13.578Z,22.00
2019-01-19T22:04:06.635Z,41.23
2019-01-19T22:06:56.616Z,12.63
2019-01-19T22:09:46.599Z,12.03
2019-01-19T22:12:39.660Z,39.27
2019-01-19T22:15:29.902Z,34.75
2019-01-19T22:18:22.953Z,49.77
2019-01-19T22:21:16.010Z,68.30
2019-01-19T22:24:10.093Z,61.75
2019-01-19T22:27:05.964Z,61.88
2019-01-19T22:29:58.767Z,31.55
2019-01-19T22:32:51.563Z,68.12
2019-01-19T22:35:46.670Z,67.85
2019-01-19T22:38:39.466Z,46.05
2019-01-19T22:41:33.550Z,14.28
2019-01-19T22:44:26.604Z,66.50
2019-01-19T22:47:19.405Z,63.23
2019-01-19T22:50:12.714Z,30.60
2019-01-19T22:53:06.284Z,38.10
2019-01-19T22:56:00.874Z,28.12
2019-01-19T22:58:53.931Z,28.70
2019-01-19T23:02:02.636Z,51.48
2019-01-19T23:04:55.405Z,55.45
2019-01-19T23:07:48.212Z,60.25
2019-01-19T23:10:41.258Z,41.90
2019-01-19T23:13:34.057Z,14.63
2019-01-19T23:16:28.142Z,44.37
2019-01-19T23:19:20.937Z,15.10
2019-01-19T23:22:14.253Z,21.68
2019-01-19T23:25:07.052Z,52.27
2019-01-19T23:28:00.874Z,32.60
2019-01-19T23:30:53.930Z,34.43
2019-01-19T23:33:46.986Z,28.38
2019-01-19T23:36:40.300Z,35.83
2019-01-19T23:39:33.608Z,13.40
2019-01-19T23:42:28.201Z,21.62
2019-01-19T23:45:21.257Z,14.38
2019-01-19T23:48:14.313Z,13.28
2019-01-19T23:51:10.195Z,22.40
2019-01-19T23:54:10.678Z,11.68
2019-01-19T23:57:03.467Z,48.80
2019-01-19T23:59:56.522Z,17.75
